more information


Thunder radar more information blitzortung!


Rain radar more information rain snow radar


Visit our other weather sites:

Template documentation
and downloads

And another site


Nearby METAR Reports

   
EHVK - Volkel Rnlafb, Netherlands
Distance from station: SW 11 mi
Updated: Sep 23 2020 12:25 pm
Mostly Cloudy  
Mostly Cloudy  
   Wind: West 13 mph
Wind: West 13 mph
Temperature: 70°F
Dew Point: 55°F
Humidity: 60%
Barometer: 29.59 inHg
Clouds: Mostly Cloudy
Visibility: More than 6 mi
Cloud details: Partly Cloudy 1402 m,
Mostly Cloudy 1555 m,
Mostly Cloudy 1737 m
EHVK 231625Z AUTO 27011KT 200V310 9999 SCT046 BKN051 BKN057 21/13 Q1002 BLU
EDLV - Niederrhein, Germany
Distance from station: SE 15 mi
Updated: Sep 23 2020 12:20 pm
Clear  
Clear  
   Wind: SW 12 mph
Wind: SW 12 mph
Temperature: 72°F
Dew Point: 54°F
Humidity: 53%
Barometer: 29.59 inHg
Visibility: More than 6 mi
Cloud details: Clear
EDLV 231620Z 22010KT CAVOK 22/12 Q1002
EHDL - Deelen Rnlafb, Netherlands
Distance from station: N 22 mi
Updated: Sep 23 2020 12:25 pm
Overcast  
Overcast  
   Wind: WSW 9 mph
Wind: WSW 9 mph
Temperature: 64°F
Dew Point: 57°F
Humidity: 78%
Barometer: 29.59 inHg
Clouds: Overcast
Visibility: More than 6 mi
Cloud details: Few Clouds 549 m,
Mostly Cloudy 2012 m,
Overcast 2164 m
EHDL 231625Z AUTO 25008KT 150V290 9999 FEW018CB BKN066 OVC071 18/14 Q1002 BLU
EHEH - Eindhoven Rnlafb, Netherlands
Distance from station: SW 30 mi
Updated: Sep 23 2020 12:25 pm
Overcast  
Overcast  
   Wind: SW 13 mph
Wind: SW 13 mph
Temperature: 70°F
Dew Point: 52°F
Humidity: 53%
Barometer: 29.59 inHg
Clouds: Overcast
Visibility: More than 6 mi
Cloud details: Partly Cloudy 1920 m,
Overcast 2438 m
EHEH 231625Z AUTO 22011KT 190V250 9999 SCT063 OVC080 21/11 Q1002 BLU TEMPO 21015G25KT FEW020CB
EHGR - Gilze-Rijen Rnla, Netherlands
Distance from station: WSW 43 mi
Updated: Sep 23 2020 12:25 pm
Overcast  
Overcast  
   Wind: South 5 mph
Wind: South 5 mph
Temperature: 66°F
Dew Point: 59°F
Humidity: 78%
Barometer: 29.56 inHg
Clouds: Overcast
Visibility: More than 6 mi
Cloud details: Overcast 5486 m
EHGR 231625Z AUTO 19004KT 140V230 9999 OVC180 19/15 Q1001 BLU
EBBL - Kleine-Brogel(Ba, Belgium
Distance from station: SSW 44 mi
Updated: Sep 23 2020 12:25 pm
Mostly Cloudy  
Mostly Cloudy  
   Wind: SW 12 mph
Wind: SW 12 mph
Temperature: 70°F
Dew Point: 52°F
Humidity: 53%
Clouds: Mostly Cloudy
Visibility: More than 6 mi
Cloud details: Few Clouds 1433 m,
Mostly Cloudy 2195 m
EBBL 231625Z AUTO 22010KT 9999 FEW047/// BKN072/// 21/11

Script developed by  Saratoga-weather.org Adapted for the template by  Weerstation Leuven

You find our weather info also at:

WeatherCloud

Weather Underground

Citizen Weather Observer Program (CWOP)

Equipment we use:

Weather-station
Davis VP2

Weather-program
Cumulus

Davis VP2

Cumulus